createdAt,value
2019-01-10T00:02:06.955Z,20.77
2019-01-10T00:04:36.008Z,20.93
2019-01-10T00:07:05.371Z,21.47
2019-01-10T00:09:34.420Z,16.67
2019-01-10T00:12:03.462Z,20.27
2019-01-10T00:14:32.524Z,18.60
2019-01-10T00:17:01.596Z,14.73
2019-01-10T00:19:30.650Z,18.80
2019-01-10T00:21:59.731Z,16.97
2019-01-10T00:24:30.813Z,17.83
2019-01-10T00:26:59.861Z,18.87
2019-01-10T00:29:28.996Z,14.87
2019-01-10T00:31:58.045Z,19.67
2019-01-10T00:34:27.093Z,14.40
2019-01-10T00:36:56.180Z,20.50
2019-01-10T00:39:25.231Z,19.40
2019-01-10T00:41:54.289Z,17.20
2019-01-10T00:44:23.381Z,17.97
2019-01-10T00:46:52.436Z,21.13
2019-01-10T00:49:21.489Z,19.90
2019-01-10T00:51:50.683Z,18.73
2019-01-10T00:54:29.943Z,19.57
2019-01-10T00:56:59.028Z,19.53
2019-01-10T00:59:28.077Z,18.70
2019-01-10T01:01:57.120Z,17.93
2019-01-10T01:04:26.197Z,20.10
2019-01-10T01:06:55.245Z,18.47
2019-01-10T01:09:24.295Z,18.83
2019-01-10T01:11:53.427Z,17.13
2019-01-10T01:14:22.471Z,16.83
2019-01-10T01:16:51.537Z,15.87
2019-01-10T01:19:20.626Z,17.33
2019-01-10T01:21:49.676Z,18.80
2019-01-10T01:24:29.590Z,18.43
2019-01-10T01:26:58.633Z,17.50
2019-01-10T01:29:27.692Z,18.33
2019-01-10T01:31:56.810Z,20.33
2019-01-10T01:34:25.854Z,17.07
2019-01-10T01:36:54.908Z,19.70
2019-01-10T01:39:23.992Z,20.70
2019-01-10T01:41:53.046Z,19.87
2019-01-10T01:44:22.109Z,17.50
2019-01-10T01:46:51.189Z,21.17
2019-01-10T01:49:20.241Z,18.70
2019-01-10T01:51:49.291Z,15.07
2019-01-10T01:54:18.405Z,20.40
2019-01-10T01:56:47.461Z,19.90
2019-01-10T01:59:16.525Z,21.77
2019-01-10T02:01:45.615Z,20.93
2019-01-10T02:07:17.941Z,21.33
2019-01-10T02:09:46.982Z,19.90
2019-01-10T02:12:16.030Z,21.13
2019-01-10T02:14:45.134Z,22.03
2019-01-10T02:17:14.187Z,19.83
2019-01-10T02:19:43.243Z,20.63
2019-01-10T02:22:12.326Z,21.80
2019-01-10T02:24:41.372Z,20.13
2019-01-10T02:27:10.434Z,19.13
2019-01-10T02:29:39.514Z,18.23
2019-01-10T02:32:08.566Z,18.97
2019-01-10T02:34:37.625Z,14.03
2019-01-10T02:37:07.547Z,15.40
2019-01-10T02:39:36.600Z,14.67
2019-01-10T02:42:05.652Z,11.23
2019-01-10T02:44:34.736Z,14.30
2019-01-10T02:47:03.794Z,10.93
2019-01-10T02:49:32.849Z,13.33
2019-01-10T02:52:01.944Z,12.30
2019-01-10T02:54:30.992Z,14.20
2019-01-10T02:57:00.065Z,14.43
2019-01-10T02:59:29.166Z,11.50
2019-01-10T03:01:58.215Z,15.60
2019-01-10T03:04:41.693Z,14.07
2019-01-10T03:07:10.699Z,14.23
2019-01-10T03:09:39.743Z,12.40
2019-01-10T03:12:08.822Z,13.43
2019-01-10T03:14:37.877Z,14.27
2019-01-10T03:17:06.936Z,15.00
2019-01-10T03:19:36.051Z,13.70
2019-01-10T03:22:05.105Z,14.07
2019-01-10T03:27:32.393Z,12.70
2019-01-10T03:30:01.481Z,14.67
2019-01-10T03:32:30.538Z,14.23
2019-01-10T03:34:59.594Z,14.63
2019-01-10T03:37:28.755Z,14.37
2019-01-10T03:39:57.814Z,14.87
2019-01-10T03:42:26.865Z,14.83
2019-01-10T03:44:55.955Z,14.07
2019-01-10T03:47:25.009Z,13.63
2019-01-10T03:49:54.069Z,13.90
2019-01-10T03:52:23.158Z,15.60
2019-01-10T03:54:52.214Z,15.07
2019-01-10T03:57:21.268Z,15.73
2019-01-10T03:59:52.679Z,14.50
2019-01-10T04:02:19.425Z,14.43
2019-01-10T04:04:48.482Z,13.10
2019-01-10T04:07:17.572Z,12.73
2019-01-10T04:09:46.626Z,13.50
2019-01-10T04:12:15.694Z,13.97
2019-01-10T04:14:44.768Z,15.03
2019-01-10T04:17:13.827Z,12.97
2019-01-10T04:19:42.877Z,13.23
2019-01-10T04:22:11.995Z,12.97
2019-01-10T04:24:41.057Z,12.47
2019-01-10T04:27:10.119Z,11.70
2019-01-10T04:29:39.192Z,12.23
2019-01-10T04:32:08.330Z,12.53
2019-01-10T04:34:37.385Z,11.97
2019-01-10T04:37:06.468Z,10.80
2019-01-10T04:39:35.522Z,10.47
2019-01-10T04:42:04.572Z,9.73
2019-01-10T04:44:33.697Z,9.17
2019-01-10T04:47:02.747Z,7.80
2019-01-10T04:49:31.798Z,7.57
2019-01-10T04:52:00.856Z,8.40
2019-01-10T04:54:38.217Z,8.47
2019-01-10T04:57:03.722Z,9.20
2019-01-10T04:59:32.776Z,8.97
2019-01-10T05:02:01.835Z,10.93
2019-01-10T05:04:30.932Z,10.03
2019-01-10T05:06:59.992Z,10.97
2019-01-10T05:09:29.035Z,8.87
2019-01-10T05:11:58.106Z,9.67
2019-01-10T05:14:27.160Z,10.03
2019-01-10T05:16:56.222Z,10.43
2019-01-10T05:19:25.304Z,9.10
2019-01-10T05:21:54.362Z,8.90
2019-01-10T05:24:23.408Z,8.77
2019-01-10T05:26:52.637Z,8.77
2019-01-10T05:29:21.689Z,8.40
2019-01-10T05:31:50.738Z,8.47
2019-01-10T05:34:19.813Z,11.00
2019-01-10T05:36:48.869Z,10.90
2019-01-10T05:39:18.772Z,10.90
2019-01-10T05:41:47.857Z,10.27
2019-01-10T05:44:26.244Z,11.27
2019-01-10T05:46:48.624Z,13.33
2019-01-10T05:49:15.272Z,12.83
2019-01-10T05:51:44.330Z,13.00
2019-01-10T05:54:13.385Z,11.73
2019-01-10T05:56:42.474Z,12.17
2019-01-10T05:59:11.773Z,14.10
2019-01-10T06:01:40.833Z,14.40
2019-01-10T06:04:09.911Z,12.37
2019-01-10T06:06:38.957Z,13.47
2019-01-10T06:09:08.072Z,11.53
2019-01-10T06:11:37.199Z,9.33
2019-01-10T06:14:06.254Z,8.00
2019-01-10T06:16:35.427Z,11.33
2019-01-10T06:19:04.422Z,14.70
2019-01-10T06:21:33.486Z,12.60
2019-01-10T06:24:04.526Z,8.23
2019-01-10T06:26:33.607Z,7.70
2019-01-10T06:29:02.662Z,8.40
2019-01-10T06:31:31.719Z,9.53
2019-01-10T06:34:00.819Z,8.07
2019-01-10T06:36:29.880Z,7.87
2019-01-10T06:38:58.921Z,7.27
2019-01-10T06:41:27.994Z,6.80
2019-01-10T06:43:57.047Z,8.37
2019-01-10T06:46:26.094Z,7.13
2019-01-10T06:48:55.188Z,6.73
2019-01-10T06:51:24.222Z,17.33
2019-01-10T06:53:53.290Z,102.87
2019-01-10T06:56:22.407Z,6.67
2019-01-10T06:58:51.454Z,5.90
2019-01-10T07:01:20.494Z,9.77
2019-01-10T07:03:49.579Z,11.33
2019-01-10T07:06:18.629Z,15.30
2019-01-10T07:08:47.680Z,12.97
2019-01-10T07:11:16.766Z,12.30
2019-01-10T07:13:45.815Z,10.63
2019-01-10T07:16:14.864Z,12.47
2019-01-10T07:18:44.016Z,16.97
2019-01-10T07:21:13.078Z,21.77
2019-01-10T07:23:42.158Z,22.87
2019-01-10T07:26:11.249Z,16.87
2019-01-10T07:28:40.316Z,18.63
2019-01-10T07:31:09.389Z,17.67
2019-01-10T07:33:38.475Z,16.40
2019-01-10T07:36:07.533Z,16.53
2019-01-10T07:38:36.601Z,14.13
2019-01-10T07:41:05.730Z,15.47
2019-01-10T07:43:34.786Z,14.67
2019-01-10T07:46:03.878Z,14.90
2019-01-10T07:48:32.967Z,16.07
2019-01-10T07:51:02.026Z,22.43
2019-01-10T07:53:31.091Z,24.97
2019-01-10T07:56:00.194Z,26.40
2019-01-10T07:58:29.255Z,23.47
2019-01-10T08:00:58.315Z,19.60
2019-01-10T08:03:27.419Z,21.07
2019-01-10T08:05:56.471Z,25.77
2019-01-10T08:08:25.514Z,21.37
2019-01-10T08:10:54.612Z,18.63
2019-01-10T08:13:23.658Z,24.90
2019-01-10T08:15:52.711Z,23.57
2019-01-10T08:18:21.806Z,18.07
2019-01-10T08:20:50.931Z,21.13
2019-01-10T08:23:19.994Z,20.50
2019-01-10T08:25:49.243Z,20.47
2019-01-10T08:28:18.200Z,21.60
2019-01-10T08:30:47.248Z,21.30
2019-01-10T08:33:16.327Z,22.40
2019-01-10T08:35:45.377Z,22.87
2019-01-10T08:38:14.449Z,22.63
2019-01-10T08:40:43.529Z,20.40
2019-01-10T08:43:12.593Z,21.80
2019-01-10T08:45:41.660Z,22.83
2019-01-10T08:48:10.796Z,20.83
2019-01-10T08:50:39.860Z,20.97
2019-01-10T08:53:08.919Z,22.33
2019-01-10T08:55:37.995Z,27.77
2019-01-10T08:58:07.052Z,30.13
2019-01-10T09:00:36.112Z,32.30
2019-01-10T09:03:05.199Z,38.03
2019-01-10T09:05:34.265Z,43.10
2019-01-10T09:08:03.315Z,37.30
2019-01-10T09:10:32.429Z,35.37
2019-01-10T09:13:01.504Z,28.77
2019-01-10T09:15:34.573Z,24.77
2019-01-10T09:17:59.696Z,48.07
2019-01-10T09:20:28.748Z,28.20
2019-01-10T09:22:57.901Z,31.50
2019-01-10T09:25:27.116Z,56.17
2019-01-10T09:27:56.197Z,112.50
2019-01-10T09:30:25.257Z,59.20
2019-01-10T09:32:54.676Z,55.37
2019-01-10T09:35:23.738Z,38.43
2019-01-10T09:37:52.784Z,52.53
2019-01-10T09:40:21.866Z,35.23
2019-01-10T09:42:50.911Z,34.10
2019-01-10T09:45:19.965Z,28.37
2019-01-10T09:47:49.076Z,44.07
2019-01-10T09:50:18.137Z,37.67
2019-01-10T09:52:47.187Z,35.23
2019-01-10T09:55:16.286Z,27.97
2019-01-10T09:57:45.333Z,33.13
2019-01-10T10:00:14.396Z,44.00
2019-01-10T10:02:43.476Z,40.27
2019-01-10T10:05:12.534Z,28.17
2019-01-10T10:07:41.600Z,27.80
2019-01-10T10:10:11.473Z,29.03
2019-01-10T10:12:40.529Z,29.47
2019-01-10T10:15:09.595Z,28.00
2019-01-10T10:17:38.721Z,28.70
2019-01-10T10:20:07.799Z,28.67
2019-01-10T10:22:36.865Z,23.30
2019-01-10T10:25:05.948Z,27.47
2019-01-10T10:27:34.999Z,32.07
2019-01-10T10:30:04.067Z,24.73
2019-01-10T10:32:33.140Z,26.33
2019-01-10T10:35:02.198Z,31.70
2019-01-10T10:37:31.250Z,41.83
2019-01-10T10:40:00.356Z,40.57
2019-01-10T10:42:29.406Z,31.63
2019-01-10T10:44:58.472Z,33.57
2019-01-10T10:47:27.574Z,50.63
2019-01-10T10:49:56.630Z,49.77
2019-01-10T10:52:25.691Z,71.13
2019-01-10T10:54:54.777Z,43.43
2019-01-10T10:57:23.847Z,33.50
2019-01-10T10:59:52.918Z,65.20
2019-01-10T11:02:22.029Z,52.77
2019-01-10T11:04:51.102Z,47.03
2019-01-10T11:07:20.167Z,44.70
2019-01-10T11:09:49.260Z,32.47
2019-01-10T11:12:18.326Z,38.27
2019-01-10T11:14:48.364Z,31.63
2019-01-10T11:17:16.487Z,33.83
2019-01-10T11:19:45.624Z,31.97
2019-01-10T11:22:14.709Z,31.10
2019-01-10T11:24:43.807Z,28.23
2019-01-10T11:27:12.876Z,23.07
2019-01-10T11:29:42.655Z,20.93
2019-01-10T11:32:13.274Z,29.20
2019-01-10T11:34:40.813Z,27.87
2019-01-10T11:37:09.891Z,30.73
2019-01-10T11:39:38.978Z,21.23
2019-01-10T11:42:08.041Z,24.50
2019-01-10T11:44:37.096Z,23.93
2019-01-10T11:47:06.202Z,30.07
2019-01-10T11:49:35.287Z,38.30
2019-01-10T11:52:04.360Z,34.97
2019-01-10T11:54:33.447Z,37.20
2019-01-10T11:57:02.493Z,38.17
2019-01-10T11:59:31.545Z,18.43
2019-01-10T12:02:00.642Z,18.63
2019-01-10T12:04:29.714Z,18.70
2019-01-10T12:06:58.776Z,30.63
2019-01-10T12:09:27.887Z,32.47
2019-01-10T12:11:56.940Z,37.47
2019-01-10T12:14:25.994Z,37.80
2019-01-10T12:16:55.118Z,35.93
2019-01-10T12:19:24.170Z,36.80
2019-01-10T12:21:53.223Z,29.83
2019-01-10T12:24:22.305Z,34.00
2019-01-10T12:26:51.359Z,20.10
2019-01-10T12:29:20.413Z,24.13
2019-01-10T12:31:50.382Z,28.83
2019-01-10T12:34:19.461Z,20.07
2019-01-10T12:36:48.539Z,29.53
2019-01-10T12:39:17.655Z,35.13
2019-01-10T12:41:46.746Z,26.03
2019-01-10T12:44:15.806Z,31.93
2019-01-10T12:46:44.895Z,41.23
2019-01-10T12:49:14.508Z,52.83
2019-01-10T12:51:43.028Z,153.90
2019-01-10T12:54:12.293Z,97.20
2019-01-10T12:56:41.348Z,65.37
2019-01-10T12:59:10.407Z,91.30
2019-01-10T13:01:39.589Z,96.93
2019-01-10T13:04:08.651Z,96.60
2019-01-10T13:06:37.794Z,105.47
2019-01-10T13:09:06.917Z,41.63
2019-01-10T13:11:36.004Z,54.40
2019-01-10T13:14:26.834Z,24.53
2019-01-10T13:16:55.901Z,53.37
2019-01-10T13:19:24.951Z,62.03
2019-01-10T13:21:54.042Z,41.73
2019-01-10T13:24:23.145Z,67.83
2019-01-10T13:26:52.253Z,68.73
2019-01-10T13:29:21.363Z,21.33
2019-01-10T13:31:50.526Z,34.57
2019-01-10T13:34:19.611Z,83.60
2019-01-10T13:36:48.761Z,25.20
2019-01-10T13:39:17.830Z,17.83
2019-01-10T13:41:46.916Z,32.03
2019-01-10T13:44:15.998Z,25.17
2019-01-10T13:46:45.057Z,20.60
2019-01-10T13:49:14.158Z,32.77
2019-01-10T13:51:44.197Z,49.00
2019-01-10T13:54:13.273Z,68.03
2019-01-10T13:56:42.321Z,51.67
2019-01-10T14:01:40.495Z,24.43
2019-01-10T14:04:09.550Z,55.50
2019-01-10T14:06:38.624Z,25.30
2019-01-10T14:09:07.674Z,21.10
2019-01-10T14:11:36.746Z,50.13
2019-01-10T14:14:18.367Z,41.10
2019-01-10T14:16:47.410Z,21.37
2019-01-10T14:19:16.546Z,23.37
2019-01-10T14:21:46.762Z,25.13
2019-01-10T14:24:14.646Z,29.30
2019-01-10T14:26:43.695Z,27.87
2019-01-10T14:29:12.789Z,40.60
2019-01-10T14:31:41.850Z,31.57
2019-01-10T14:34:14.134Z,53.83
2019-01-10T14:36:40.040Z,39.73
2019-01-10T14:39:09.120Z,53.37
2019-01-10T14:41:38.199Z,107.30
2019-01-10T14:44:07.297Z,57.93
2019-01-10T14:46:36.357Z,51.80
2019-01-10T14:49:05.421Z,33.87
2019-01-10T14:51:34.501Z,32.63
2019-01-10T14:54:03.555Z,42.03
2019-01-10T14:56:32.627Z,35.17
2019-01-10T14:59:01.723Z,34.13
2019-01-10T15:01:30.779Z,40.43
2019-01-10T15:03:59.838Z,32.47
2019-01-10T15:06:28.928Z,36.00
2019-01-10T15:08:57.992Z,30.97
2019-01-10T15:11:27.068Z,35.40
2019-01-10T15:14:04.433Z,58.77
2019-01-10T15:16:33.490Z,21.90
2019-01-10T15:19:02.555Z,30.57
2019-01-10T15:21:31.661Z,49.30
2019-01-10T15:24:00.722Z,45.80
2019-01-10T15:26:29.773Z,33.13
2019-01-10T15:28:58.854Z,31.93
2019-01-10T15:31:27.908Z,34.93
2019-01-10T15:33:56.963Z,27.50
2019-01-10T15:36:26.078Z,25.60
2019-01-10T15:38:55.130Z,22.67
2019-01-10T15:41:24.190Z,24.73
2019-01-10T15:43:54.307Z,37.90
2019-01-10T15:46:23.365Z,34.53
2019-01-10T15:48:52.417Z,36.07
2019-01-10T15:51:21.510Z,41.13
2019-01-10T15:54:09.800Z,43.57
2019-01-10T15:56:39.215Z,45.90
2019-01-10T15:59:08.265Z,49.13
2019-01-10T16:01:37.317Z,110.50
2019-01-10T16:04:07.488Z,83.57
2019-01-10T16:06:35.480Z,60.23
2019-01-10T16:09:04.550Z,65.83
2019-01-10T16:11:33.642Z,105.93
2019-01-10T16:14:02.706Z,91.80
2019-01-10T16:16:31.780Z,126.83
2019-01-10T16:19:02.172Z,77.17
2019-01-10T16:21:29.961Z,65.57
2019-01-10T16:24:09.712Z,65.33
2019-01-10T16:26:38.765Z,65.93
2019-01-10T16:29:07.834Z,67.97
2019-01-10T16:31:36.929Z,69.47
2019-01-10T16:34:19.278Z,170.33
2019-01-10T16:36:48.389Z,171.07
2019-01-10T16:39:17.462Z,117.80
2019-01-10T16:41:46.541Z,104.80
2019-01-10T16:44:15.636Z,111.67
2019-01-10T16:46:44.701Z,99.50
2019-01-10T16:49:13.764Z,95.60
2019-01-10T16:51:44.100Z,90.87
2019-01-10T16:54:11.911Z,88.77
2019-01-10T16:56:41.781Z,87.87
2019-01-10T16:59:10.985Z,88.53
2019-01-10T17:01:40.049Z,110.40
2019-01-10T17:04:22.194Z,92.90
2019-01-10T17:06:51.254Z,124.20
2019-01-10T17:09:20.323Z,112.90
2019-01-10T17:11:49.419Z,109.93
2019-01-10T17:14:18.495Z,108.27
2019-01-10T17:16:50.148Z,115.83
2019-01-10T17:19:16.685Z,155.23
2019-01-10T17:21:45.752Z,140.50
2019-01-10T17:24:14.817Z,138.30
2019-01-10T17:26:43.913Z,127.70
2019-01-10T17:29:12.982Z,255.53
2019-01-10T17:31:42.047Z,151.53
2019-01-10T17:37:13.224Z,113.50
2019-01-10T17:39:42.321Z,130.50
2019-01-10T17:42:11.381Z,99.87
2019-01-10T17:45:05.576Z,98.07
2019-01-10T17:47:34.638Z,98.10
2019-01-10T17:50:03.791Z,110.43
2019-01-10T17:52:32.842Z,130.33
2019-01-10T17:55:01.906Z,200.27
2019-01-10T17:57:31.006Z,204.90
2019-01-10T18:00:00.228Z,187.13
2019-01-10T18:02:29.138Z,212.90
2019-01-10T18:04:58.227Z,117.63
2019-01-10T18:07:27.296Z,62.77
2019-01-10T18:09:56.359Z,67.37
2019-01-10T18:12:25.580Z,69.77
2019-01-10T18:14:54.640Z,84.70
2019-01-10T18:17:23.705Z,66.87
2019-01-10T18:19:52.801Z,78.40
2019-01-10T18:22:21.866Z,79.53
2019-01-10T18:24:50.931Z,72.27
2019-01-10T18:27:20.023Z,67.80
2019-01-10T18:29:49.169Z,61.57
2019-01-10T18:32:18.272Z,66.97
2019-01-10T18:34:47.422Z,69.13
2019-01-10T18:37:16.527Z,78.40
2019-01-10T18:39:45.624Z,80.30
2019-01-10T18:42:14.762Z,140.03
2019-01-10T18:44:56.893Z,145.43
2019-01-10T18:47:26.028Z,123.33
2019-01-10T18:49:55.219Z,89.17
2019-01-10T18:52:24.266Z,77.20
2019-01-10T18:54:53.397Z,79.77
2019-01-10T18:57:22.456Z,85.07
2019-01-10T18:59:51.517Z,87.17
2019-01-10T19:02:20.604Z,86.13
2019-01-10T19:04:49.676Z,87.73
2019-01-10T19:07:18.812Z,94.50
2019-01-10T19:09:47.903Z,165.47
2019-01-10T19:12:16.965Z,162.20
2019-01-10T19:14:47.054Z,113.53
2019-01-10T19:17:16.199Z,176.57
2019-01-10T19:19:45.264Z,220.47
2019-01-10T19:22:14.365Z,143.63
2019-01-10T19:24:43.468Z,131.20
2019-01-10T19:27:12.540Z,131.70
2019-01-10T19:29:41.611Z,118.83
2019-01-10T19:32:10.709Z,135.10
2019-01-10T19:34:39.798Z,102.27
2019-01-10T19:37:08.870Z,116.47
2019-01-10T19:39:38.130Z,103.83
2019-01-10T19:42:07.197Z,116.47
2019-01-10T19:44:36.273Z,97.73
2019-01-10T19:47:05.371Z,110.03
2019-01-10T19:49:34.455Z,111.17
2019-01-10T19:52:03.529Z,105.03
2019-01-10T19:54:32.621Z,103.30
2019-01-10T19:57:01.705Z,101.97
2019-01-10T19:59:31.027Z,89.37
2019-01-10T20:02:00.123Z,92.30
2019-01-10T20:04:33.773Z,109.30
2019-01-10T20:07:02.876Z,119.37
2019-01-10T20:09:31.947Z,109.70
2019-01-10T20:12:01.037Z,118.37
2019-01-10T20:14:30.134Z,126.60
2019-01-10T20:16:59.209Z,103.90
2019-01-10T20:19:28.293Z,96.80
2019-01-10T20:21:57.463Z,100.57
2019-01-10T20:24:39.345Z,93.73
2019-01-10T20:27:08.437Z,87.57
2019-01-10T20:29:37.502Z,97.33
2019-01-10T20:32:06.583Z,103.70
2019-01-10T20:34:35.678Z,116.93
2019-01-10T20:37:04.752Z,107.87
2019-01-10T20:39:33.906Z,96.23
2019-01-10T20:42:03.016Z,100.50
2019-01-10T20:44:32.135Z,98.77
2019-01-10T20:47:01.202Z,91.23
2019-01-10T20:49:30.306Z,100.13
2019-01-10T20:51:59.368Z,98.60
2019-01-10T20:54:28.444Z,103.67
2019-01-10T20:56:57.551Z,110.30
2019-01-10T20:59:26.631Z,116.70
2019-01-10T21:01:55.707Z,109.97
2019-01-10T21:04:24.813Z,110.83
2019-01-10T21:06:53.877Z,108.80
2019-01-10T21:09:22.947Z,102.50
2019-01-10T21:11:52.045Z,96.90
2019-01-10T21:14:23.104Z,92.83
2019-01-10T21:16:52.200Z,88.20
2019-01-10T21:19:21.269Z,92.13
2019-01-10T21:21:50.392Z,93.70
2019-01-10T21:24:19.833Z,91.20
2019-01-10T21:26:48.904Z,90.63
2019-01-10T21:29:22.492Z,88.77
2019-01-10T21:31:51.552Z,88.63
2019-01-10T21:34:20.616Z,84.80
2019-01-10T21:36:49.721Z,83.00
2019-01-10T21:39:18.816Z,81.50
2019-01-10T21:41:47.875Z,76.37
2019-01-10T21:44:17.098Z,72.43
2019-01-10T21:46:46.161Z,71.87
2019-01-10T21:49:15.231Z,66.57
2019-01-10T21:51:44.325Z,60.37
2019-01-10T21:54:13.393Z,61.17
2019-01-10T21:56:42.467Z,66.23
2019-01-10T21:59:11.586Z,69.20
2019-01-10T22:01:41.556Z,70.43
2019-01-10T22:04:10.632Z,68.03
2019-01-10T22:06:39.744Z,70.50
2019-01-10T22:09:08.835Z,75.27
2019-01-10T22:11:37.897Z,74.00
2019-01-10T22:14:21.920Z,77.47
2019-01-10T22:16:50.973Z,80.13
2019-01-10T22:19:20.043Z,76.63
2019-01-10T22:21:49.160Z,74.40
2019-01-10T22:24:18.223Z,71.27
2019-01-10T22:26:47.303Z,67.10
2019-01-10T22:29:16.397Z,69.83
2019-01-10T22:31:45.462Z,65.77
2019-01-10T22:34:14.521Z,62.90
2019-01-10T22:36:43.616Z,62.57
2019-01-10T22:39:12.671Z,62.67
2019-01-10T22:41:41.734Z,59.60
2019-01-10T22:44:10.943Z,58.97
2019-01-10T22:46:39.996Z,55.70
2019-01-10T22:49:09.049Z,52.90
2019-01-10T22:51:38.133Z,50.60
2019-01-10T22:54:07.182Z,47.43
2019-01-10T22:56:36.229Z,51.27
2019-01-10T22:59:05.392Z,54.30
2019-01-10T23:01:34.416Z,52.67
2019-01-10T23:04:04.301Z,53.37
2019-01-10T23:06:33.502Z,50.67
2019-01-10T23:09:02.548Z,50.37
2019-01-10T23:11:31.610Z,48.20
2019-01-10T23:14:06.949Z,44.73
2019-01-10T23:16:36.004Z,49.13
2019-01-10T23:19:05.101Z,48.43
2019-01-10T23:21:34.257Z,47.90
2019-01-10T23:24:17.360Z,49.37
2019-01-10T23:26:46.297Z,49.70
2019-01-10T23:29:15.362Z,52.47
2019-01-10T23:31:44.426Z,49.03
2019-01-10T23:34:13.513Z,48.57
2019-01-10T23:36:42.569Z,46.10
2019-01-10T23:39:11.645Z,46.00
2019-01-10T23:41:40.761Z,47.90
2019-01-10T23:44:13.091Z,46.80
2019-01-10T23:46:42.179Z,46.90
2019-01-10T23:49:11.243Z,45.23
2019-01-10T23:51:40.295Z,44.70
2019-01-10T23:54:09.379Z,42.63
2019-01-10T23:56:38.431Z,38.77
2019-01-10T23:59:07.493Z,34.90
